MUNG/GER METAR and TAF weather

Enter ICAO airport designator
Station Type Date Time Source
MUNG METAR 2019/01/30 11:50 UTC NOAA

MUNG 301150Z VRB01KT 9999 FEW030 14/13 Q1018


Station Type Date Time Source
MUNG Decoded METAR 2019/01/30 11:50 UTC NOAA

Nueva Gerona, Isla De Pinos, Cuba (MUNG) 21-50N 082-47W 23M
Jan 30, 2019 - 06:50 AM EST / 2019.01.30 1150 UTC
Wind: Variable at 1 MPH (1 KT):0
Visibility: greater than 7 mile(s):0
Sky conditions: mostly clear
Temperature: 57 F (14 C)
Dew Point: 55 F (13 C)
Relative Humidity: 93%
Pressure (altimeter): 30.06 in. Hg (1018 hPa)
ob: MUNG 301150Z VRB01KT 9999 FEW030 14/13 Q1018
cycle: 12

Station Type Date Time Source
MUNG TAF 2019/06/22 12:15 UTC NOAA

MUNG 221100Z 2212/2224 VRB03KT 9000 SCT020
BECMG 2213/2215 07010KT

Example: see airport list